Time;durP1;ratioP1;P1;durP2;ratioP2;P2;SDS_P1;SDS_P2;PMS_P1;PMS_P2;Temp;Humidity;BMP_temperature;BMP_pressure;BME280_temperature;BME280_humidity;BME280_pressure;Samples;Min_cycle;Max_cycle;Signal;HPM_P1;HPM_P2
2023/05/05 00:02:08;;;;;;;1.40;1.30;;;;;;;14.28;44.21;101592.03;5015937;27;99125;-81
2023/05/05 00:04:33;;;;;;;2.57;1.33;;;;;;;14.22;44.08;101611.34;5015791;27;97414;-82
2023/05/05 00:06:59;;;;;;;7.43;1.37;;;;;;;14.25;43.99;101579.94;5022490;27;96905;-81
2023/05/05 00:09:24;;;;;;;1.50;1.10;;;;;;;14.18;44.36;101577.63;5022297;27;98998;-81
2023/05/05 00:11:50;;;;;;;1.57;1.47;;;;;;;14.17;44.29;101584.41;5016916;27;105216;-81
2023/05/05 00:14:15;;;;;;;1.93;1.30;;;;;;;14.16;44.36;101574.59;5022278;27;97058;-81
2023/05/05 00:16:41;;;;;;;2.87;1.20;;;;;;;14.12;44.38;101578.84;5018052;27;97508;-81
2023/05/05 00:19:06;;;;;;;2.33;1.40;;;;;;;14.06;44.60;101581.59;5014266;27;96852;-82
2023/05/05 00:21:31;;;;;;;1.10;1.00;;;;;;;14.05;44.65;101595.91;5017538;27;100161;-80
2023/05/05 00:23:57;;;;;;;1.40;1.10;;;;;;;14.01;44.82;101579.53;5018310;27;97743;-80
2023/05/05 00:26:22;;;;;;;2.97;1.17;;;;;;;13.94;45.04;101568.16;5020299;27;97659;-81
2023/05/05 00:28:48;;;;;;;2.97;1.20;;;;;;;13.91;45.24;101569.16;5023140;27;98742;-81
2023/05/05 00:31:16;;;;;;;2.40;1.23;;;;;;;13.95;45.39;101570.44;5022207;27;98901;-80
2023/05/05 00:33:41;;;;;;;5.73;1.60;;;;;;;13.93;45.20;101561.13;5018881;27;97414;-81
2023/05/05 00:36:08;;;;;;;1.23;1.17;;;;;;;13.96;45.17;101560.88;5019190;27;97746;-83
2023/05/05 00:38:33;;;;;;;3.10;1.10;;;;;;;13.99;45.39;101575.72;5029444;27;100445;-80
2023/05/05 00:40:58;;;;;;;1.70;1.27;;;;;;;13.96;45.38;101554.56;5019588;27;99752;-81
2023/05/05 00:43:24;;;;;;;2.60;1.20;;;;;;;13.94;45.34;101579.22;5016233;27;97578;-81
2023/05/05 00:45:59;;;;;;;1.23;1.13;;;;;;;13.97;45.80;101573.47;5017958;28;98396;-80
2023/05/05 00:48:24;;;;;;;2.30;1.60;;;;;;;13.94;45.43;101568.16;5016607;27;97193;-81
2023/05/05 00:50:50;;;;;;;2.80;1.90;;;;;;;13.91;45.95;101552.56;5017466;27;97259;-81
2023/05/05 00:53:15;;;;;;;2.00;1.33;;;;;;;13.93;45.62;101572.94;5012652;27;98540;-81
2023/05/05 00:55:41;;;;;;;2.67;1.60;;;;;;;13.90;45.67;101551.03;5017411;27;97771;-81
2023/05/05 00:58:06;;;;;;;1.77;1.63;;;;;;;13.93;45.85;101550.06;5016329;27;99909;-80
2023/05/05 01:00:33;;;;;;;3.10;1.40;;;;;;;13.92;45.82;101556.81;5014967;27;97165;-79
2023/05/05 01:02:58;;;;;;;2.47;1.63;;;;;;;13.90;45.80;101553.78;5018165;27;96664;-81
2023/05/05 01:05:26;;;;;;;2.53;1.40;;;;;;;13.88;45.68;101537.69;5013021;27;97120;-81
2023/05/05 01:08:21;;;;;;;2.03;1.30;;;;;;;13.79;47.28;101529.59;5015993;27;102681;-81
2023/05/05 01:10:57;;;;;;;1.47;1.37;;;;;;;13.76;46.91;101530.56;4960383;27;97610;-82
2023/05/05 01:13:51;;;;;;;2.43;1.60;;;;;;;13.70;47.48;101529.00;5034796;27;97376;-81
2023/05/05 01:16:28;;;;;;;1.83;1.23;;;;;;;13.72;47.62;101515.44;5022995;27;97379;-81
2023/05/05 01:19:03;;;;;;;1.97;1.10;;;;;;;13.72;46.71;101523.75;5011579;27;100660;-81
2023/05/05 01:21:41;;;;;;;2.40;1.47;;;;;;;13.71;47.32;101523.00;5009531;27;101190;-80
2023/05/05 01:24:23;;;;;;;2.90;1.33;;;;;;;13.69;47.05;101517.22;5009750;27;97404;-82
2023/05/05 01:27:13;;;;;;;1.13;1.03;;;;;;;13.64;47.46;101506.88;5013064;27;97711;-81
2023/05/05 01:30:16;;;;;;;4.30;1.47;;;;;;;13.59;47.96;101509.56;5020900;27;101257;-80
2023/05/05 01:32:47;;;;;;;3.93;1.13;;;;;;;13.56;46.70;101508.56;5014443;27;97081;-81
2023/05/05 01:35:18;;;;;;;3.53;1.03;;;;;;;13.56;46.87;101510.56;5019737;27;98379;-81
2023/05/05 01:37:51;;;;;;;2.43;1.23;;;;;;;13.55;47.53;101507.03;5009681;27;97143;-81
2023/05/05 01:40:23;;;;;;;1.77;1.60;;;;;;;13.52;46.96;101496.97;5013984;27;100521;-81
2023/05/05 01:42:50;;;;;;;1.53;1.40;;;;;;;13.50;46.68;101502.22;5010610;27;96725;-81
2023/05/05 01:45:19;;;;;;;1.10;1.00;;;;;;;13.48;47.06;101516.53;5021011;27;97720;-81
2023/05/05 01:47:45;;;;;;;5.53;1.70;;;;;;;13.46;47.04;101513.53;5020697;27;96731;-81
2023/05/05 01:50:13;;;;;;;1.57;1.00;;;;;;;13.42;47.06;101506.69;5012746;27;100802;-82
2023/05/05 01:52:41;;;;;;;1.77;1.47;;;;;;;13.34;47.12;101505.63;5012569;27;100228;-81
2023/05/05 01:55:08;;;;;;;2.83;1.53;;;;;;;13.35;47.19;101510.66;5016266;27;97304;-80
2023/05/05 01:57:37;;;;;;;3.23;1.57;;;;;;;13.35;47.38;101518.19;5014053;27;97500;-80
2023/05/05 02:00:03;;;;;;;2.17;1.53;;;;;;;13.30;47.30;101511.38;5015667;27;99995;-81
2023/05/05 02:02:30;;;;;;;1.97;1.23;;;;;;;13.33;47.32;101507.63;5009006;27;97305;-81
2023/05/05 02:04:57;;;;;;;1.73;1.20;;;;;;;13.34;47.30;101516.69;5012737;27;97464;-81
2023/05/05 02:07:23;;;;;;;1.40;1.30;;;;;;;13.25;47.42;101509.34;5016238;27;97245;-81
2023/05/05 02:09:50;;;;;;;3.70;1.63;;;;;;;13.22;47.43;101492.97;5011345;27;100314;-81
2023/05/05 02:12:17;;;;;;;2.50;1.53;;;;;;;13.14;47.47;101491.91;5010261;27;100444;-81
2023/05/05 02:14:43;;;;;;;2.60;1.50;;;;;;;13.18;47.42;101490.44;5011559;27;97538;-81
2023/05/05 02:17:10;;;;;;;1.40;1.30;;;;;;;13.16;47.60;101494.94;5017206;27;97636;-81
2023/05/05 02:19:39;;;;;;;3.50;1.60;;;;;;;13.16;47.70;101492.16;5022897;27;97534;-80
2023/05/05 02:22:04;;;;;;;2.37;1.40;;;;;;;13.12;47.63;101486.88;5023457;27;97170;-81
2023/05/05 02:24:30;;;;;;;1.90;1.50;;;;;;;13.13;47.57;101499.41;5017081;27;97470;-81
2023/05/05 02:26:58;;;;;;;2.00;1.40;;;;;;;13.15;47.77;101490.66;5021277;27;97497;-82
2023/05/05 02:29:30;;;;;;;1.87;1.50;;;;;;;13.15;47.80;101479.59;5023438;27;99229;-80
2023/05/05 02:32:05;;;;;;;3.00;1.43;;;;;;;13.10;48.24;101480.31;5014563;27;97325;-81
2023/05/05 02:34:39;;;;;;;3.70;1.57;;;;;;;13.05;48.29;101470.72;5020673;27;97158;-81
2023/05/05 02:37:09;;;;;;;2.93;1.77;;;;;;;13.01;47.93;101474.94;5017389;27;97217;-81
2023/05/05 02:39:50;;;;;;;1.50;1.33;;;;;;;12.98;48.88;101479.41;5021935;27;99740;-80
2023/05/05 02:42:20;;;;;;;1.70;1.57;;;;;;;12.95;48.21;101482.41;5018741;27;100418;-81
2023/05/05 02:44:47;;;;;;;5.07;1.80;;;;;;;12.90;47.95;101475.59;5018441;27;97074;-81
2023/05/05 02:47:13;;;;;;;3.70;2.00;;;;;;;12.87;48.17;101484.06;5013565;27;97288;-81
2023/05/05 02:49:38;;;;;;;5.30;1.90;;;;;;;12.89;48.05;101498.19;5019572;27;97864;-80
2023/05/05 02:52:03;;;;;;;3.50;1.80;;;;;;;12.85;48.29;101479.03;5022650;27;99706;-81
2023/05/05 02:54:30;;;;;;;2.93;1.73;;;;;;;12.88;48.10;101486.38;5033069;27;97227;-81
2023/05/05 02:56:57;;;;;;;3.07;1.73;;;;;;;12.83;48.30;101500.88;5021627;27;96859;-81
2023/05/05 02:59:28;;;;;;;1.20;1.20;;;;;;;12.80;48.98;101474.22;5021395;27;100848;-81
2023/05/05 03:02:06;;;;;;;1.50;1.27;;;;;;;12.77;48.74;101473.22;5019422;27;99476;-81
2023/05/05 03:04:39;;;;;;;2.53;1.73;;;;;;;12.77;49.12;101480.72;5015486;27;97113;-81
2023/05/05 03:07:11;;;;;;;3.93;2.10;;;;;;;12.75;48.71;101466.66;5018903;27;97125;-81
2023/05/05 03:09:40;;;;;;;1.77;1.30;;;;;;;12.67;48.68;101466.31;5016737;27;99549;-80
2023/05/05 03:12:08;;;;;;;1.83;1.40;;;;;;;12.65;48.30;101501.94;5015442;27;99022;-80
2023/05/05 03:14:39;;;;;;;1.73;1.50;;;;;;;12.65;48.47;101476.31;5017423;27;96909;-81
2023/05/05 03:17:06;;;;;;;2.90;1.80;;;;;;;12.57;48.69;101476.00;5014906;27;97033;-80
2023/05/05 03:19:33;;;;;;;2.67;2.00;;;;;;;12.49;48.82;101482.44;5012761;27;98704;-81
2023/05/05 03:21:59;;;;;;;3.03;2.10;;;;;;;12.48;48.71;101480.91;5033257;27;100466;-81
2023/05/05 03:24:24;;;;;;;2.40;2.20;;;;;;;12.48;48.74;101473.41;5022904;27;97468;-81
2023/05/05 03:26:49;;;;;;;3.43;1.77;;;;;;;12.41;48.83;101464.78;5021768;27;97321;-81
2023/05/05 03:29:15;;;;;;;4.67;1.70;;;;;;;12.36;48.88;101471.75;5015475;27;99242;-81
2023/05/05 03:31:41;;;;;;;2.60;1.60;;;;;;;12.36;49.03;101473.75;5016880;27;99009;-81
2023/05/05 03:34:07;;;;;;;3.70;1.77;;;;;;;12.41;49.14;101464.78;5015367;27;97133;-80
2023/05/05 03:36:33;;;;;;;1.80;1.70;;;;;;;12.39;49.10;101475.53;5016941;27;98156;-81
2023/05/05 03:38:59;;;;;;;2.03;1.70;;;;;;;12.36;49.21;101460.69;5017740;27;97389;-80
2023/05/05 03:41:26;;;;;;;4.63;2.10;;;;;;;12.43;48.93;101465.81;5021583;27;98729;-81
2023/05/05 03:43:51;;;;;;;5.03;1.70;;;;;;;12.42;49.04;101478.09;5014477;27;97002;-81
2023/05/05 03:46:19;;;;;;;3.30;1.60;;;;;;;12.41;49.27;101468.31;5015121;27;97444;-80
2023/05/05 03:48:45;;;;;;;2.90;1.40;;;;;;;12.42;49.20;101477.34;5012436;27;98551;-81
2023/05/05 03:51:12;;;;;;;3.80;2.17;;;;;;;12.48;48.99;101483.69;5012472;27;98179;-81
2023/05/05 03:53:37;;;;;;;5.67;2.40;;;;;;;12.45;49.18;101484.66;5020386;27;97630;-80
2023/05/05 03:56:03;;;;;;;10.30;2.40;;;;;;;12.41;49.34;101486.84;5021140;27;97292;-80
2023/05/05 03:58:28;;;;;;;3.13;2.40;;;;;;;12.39;49.20;101478.31;5016957;27;100314;-81
2023/05/05 04:00:53;;;;;;;6.80;2.00;;;;;;;12.42;49.15;101474.59;5015007;27;99678;-81
2023/05/05 04:03:19;;;;;;;1.80;1.70;;;;;;;12.34;49.13;101473.50;5031994;27;97179;-81
2023/05/05 04:05:44;;;;;;;3.53;1.90;;;;;;;12.30;49.30;101465.41;5016653;27;97094;-81
2023/05/05 04:08:09;;;;;;;3.97;2.50;;;;;;;12.25;49.37;101476.41;5014907;27;99272;-81
2023/05/05 04:10:35;;;;;;;3.17;1.90;;;;;;;12.27;49.28;101458.13;5016075;27;98102;-81
2023/05/05 04:13:00;;;;;;;2.10;1.87;;;;;;;12.24;49.46;101472.09;5015578;27;97199;-81
2023/05/05 04:15:26;;;;;;;1.73;1.63;;;;;;;12.24;49.44;101474.88;5017209;27;97558;-81
2023/05/05 04:17:51;;;;;;;2.47;1.83;;;;;;;12.26;49.53;101475.91;5014446;27;96988;-81
2023/05/05 04:20:16;;;;;;;2.03;1.77;;;;;;;12.22;49.71;101469.06;5015764;27;97206;-80
2023/05/05 04:22:42;;;;;;;2.40;1.90;;;;;;;12.22;49.77;101485.63;5019132;27;96993;-80
2023/05/05 04:25:07;;;;;;;3.23;2.03;;;;;;;12.22;49.77;101477.34;5015662;27;98824;-81
2023/05/05 04:27:33;;;;;;;2.00;1.70;;;;;;;12.26;49.61;101475.13;5017632;27;96907;-81
2023/05/05 04:29:58;;;;;;;4.37;1.83;;;;;;;12.27;49.61;101465.63;5022946;27;99967;-81
2023/05/05 04:32:24;;;;;;;3.70;2.37;;;;;;;12.27;49.70;101477.44;5014368;27;97275;-80
2023/05/05 04:34:49;;;;;;;3.57;1.80;;;;;;;12.23;49.85;101470.59;5016134;27;97252;-80
2023/05/05 04:37:14;;;;;;;4.57;2.10;;;;;;;12.22;49.99;101489.16;5013791;27;97846;-81
2023/05/05 04:39:40;;;;;;;2.70;1.90;;;;;;;12.23;49.91;101476.84;5027598;27;99090;-81
2023/05/05 04:42:06;;;;;;;5.50;2.27;;;;;;;12.28;49.77;101483.69;5017626;27;97076;-81
2023/05/05 04:44:32;;;;;;;3.30;1.80;;;;;;;12.30;50.09;101472.91;5017140;27;97088;-81
2023/05/05 04:46:59;;;;;;;2.97;2.17;;;;;;;12.35;49.94;101488.78;5020134;27;97723;-81
2023/05/05 04:49:24;;;;;;;2.30;2.10;;;;;;;12.39;49.77;101483.81;5019827;27;99299;-81
2023/05/05 04:51:49;;;;;;;2.40;1.97;;;;;;;12.39;49.86;101481.06;5018691;27;97456;-80
2023/05/05 04:54:15;;;;;;;5.80;2.20;;;;;;;12.38;50.06;101474.81;5015832;27;97493;-81
2023/05/05 04:56:40;;;;;;;4.83;2.17;;;;;;;12.42;49.86;101478.09;5011100;27;99254;-80
2023/05/05 04:59:06;;;;;;;4.13;2.07;;;;;;;12.38;50.24;101471.28;5021948;27;104825;-80
2023/05/05 05:01:31;;;;;;;5.20;2.73;;;;;;;12.42;50.13;101480.09;5014024;27;97454;-81
2023/05/05 05:03:57;;;;;;;2.10;1.90;;;;;;;12.50;50.01;101481.19;5012778;27;96665;-81
2023/05/05 05:06:22;;;;;;;3.10;1.77;;;;;;;12.57;50.21;101476.00;5012955;28;99397;-81
2023/05/05 05:08:48;;;;;;;3.53;2.10;;;;;;;12.56;49.93;101466.19;5016228;27;97308;-81
2023/05/05 05:11:13;;;;;;;2.50;1.87;;;;;;;12.56;50.02;101484.75;5021030;27;97168;-81
2023/05/05 05:13:38;;;;;;;1.67;1.53;;;;;;;12.60;50.01;101466.00;5012835;27;96998;-80
2023/05/05 05:16:05;;;;;;;5.23;1.73;;;;;;;12.60;50.05;101466.75;5020354;27;97909;-80
2023/05/05 05:18:30;;;;;;;2.70;2.23;;;;;;;12.61;50.08;101461.97;5015552;27;98827;-81
2023/05/05 05:20:55;;;;;;;3.63;1.97;;;;;;;12.70;50.05;101470.88;5015875;27;97777;-81
2023/05/05 05:23:21;;;;;;;3.00;2.10;;;;;;;12.75;50.10;101463.91;5017227;27;96831;-81
2023/05/05 05:25:46;;;;;;;2.97;2.13;;;;;;;12.93;50.20;101490.44;5021258;27;100242;-81
2023/05/05 05:28:12;;;;;;;4.47;2.40;;;;;;;13.06;49.79;101475.00;5016090;27;97685;-80
2023/05/05 05:30:37;;;;;;;3.03;2.10;;;;;;;13.16;49.94;101473.59;5017603;27;104679;-81
2023/05/05 05:33:02;;;;;;;4.20;2.30;;;;;;;13.28;49.70;101483.47;5022291;27;97288;-81
2023/05/05 05:35:28;;;;;;;3.30;1.97;;;;;;;13.34;49.64;101464.19;5014592;27;96873;-81
2023/05/05 05:37:53;;;;;;;4.43;2.30;;;;;;;13.43;49.47;101459.19;5018485;27;99975;-81
2023/05/05 05:40:18;;;;;;;2.50;2.30;;;;;;;13.48;49.51;101454.97;5017728;27;97166;-81
2023/05/05 05:42:44;;;;;;;2.70;2.03;;;;;;;13.49;49.43;101448.97;5017349;27;96949;-81
2023/05/05 05:45:09;;;;;;;1.80;1.70;;;;;;;13.50;49.54;101475.34;5020420;27;99315;-81
2023/05/05 05:47:35;;;;;;;3.10;2.13;;;;;;;13.49;49.41;101467.56;5017549;27;97473;-81
2023/05/05 05:50:00;;;;;;;2.50;2.30;;;;;;;13.46;49.49;101457.47;5016123;27;97099;-80
2023/05/05 05:52:26;;;;;;;3.63;2.10;;;;;;;13.47;49.58;101459.75;5022290;27;97101;-81
2023/05/05 05:54:51;;;;;;;2.37;2.10;;;;;;;13.50;49.38;101458.00;5019530;27;100169;-81
2023/05/05 05:57:17;;;;;;;5.40;2.50;;;;;;;13.57;49.52;101471.38;5026231;27;98634;-81
2023/05/05 05:59:43;;;;;;;4.43;2.20;;;;;;;13.64;49.24;101483.97;5021322;27;97289;-81
2023/05/05 06:02:08;;;;;;;7.13;2.13;;;;;;;13.65;49.42;101480.72;5026580;27;97267;-81
2023/05/05 06:04:34;;;;;;;3.37;2.30;;;;;;;13.69;49.43;101461.13;5019569;27;98398;-81
2023/05/05 06:06:59;;;;;;;5.07;2.40;;;;;;;13.78;49.25;101469.25;5019040;27;97687;-82
2023/05/05 06:09:24;;;;;;;3.10;1.87;;;;;;;13.84;49.39;101458.97;5020363;27;97258;-81
2023/05/05 06:11:50;;;;;;;2.70;2.40;;;;;;;13.89;49.35;101461.75;5023415;27;96961;-82
2023/05/05 06:14:16;;;;;;;3.90;2.20;;;;;;;13.95;49.15;101447.94;5024569;27;100414;-82
2023/05/05 06:16:43;;;;;;;2.83;1.97;;;;;;;14.01;49.00;101457.03;5018025;27;99643;-82
2023/05/05 06:19:09;;;;;;;3.20;2.03;;;;;;;14.09;49.23;101463.59;5026249;27;97931;-82
2023/05/05 06:21:35;;;;;;;2.80;2.37;;;;;;;14.16;49.16;101466.66;5022042;27;97990;-81
2023/05/05 06:24:00;;;;;;;5.77;1.63;;;;;;;14.27;49.11;101479.78;5025446;27;100444;-81
2023/05/05 06:26:26;;;;;;;3.03;2.00;;;;;;;14.39;49.12;101497.97;5027242;27;100175;-81
2023/05/05 06:28:51;;;;;;;4.97;2.47;;;;;;;14.61;48.78;101497.28;5029801;27;97349;-81
2023/05/05 06:31:17;;;;;;;5.97;2.53;;;;;;;14.78;48.79;101511.94;5022598;27;98404;-80
2023/05/05 06:33:42;;;;;;;2.43;2.23;;;;;;;14.91;48.47;101488.03;5025204;27;97346;-80
2023/05/05 06:36:08;;;;;;;5.60;2.43;;;;;;;15.05;48.26;101486.25;5017482;27;100821;-81
2023/05/05 06:38:33;;;;;;;9.33;2.30;;;;;;;15.19;48.13;101482.50;5017536;27;97633;-82
2023/05/05 06:40:58;;;;;;;3.40;2.63;;;;;;;15.24;47.95;101489.31;5017198;27;97543;-81
2023/05/05 06:43:24;;;;;;;3.37;2.73;;;;;;;15.29;47.77;101485.78;5026341;27;99599;-81
2023/05/05 06:45:49;;;;;;;1.87;1.70;;;;;;;15.31;48.10;101481.22;5021333;27;97358;-81
2023/05/05 06:48:14;;;;;;;2.67;2.47;;;;;;;15.34;47.72;101507.19;5015419;28;98368;-82
2023/05/05 06:50:40;;;;;;;2.93;1.93;;;;;;;15.44;47.77;101498.13;5024311;27;96987;-83
2023/05/05 06:53:05;;;;;;;3.80;2.30;;;;;;;15.60;47.61;101502.16;5021928;27;100187;-81
2023/05/05 06:55:30;;;;;;;3.70;2.40;;;;;;;15.71;47.42;101482.72;5019551;27;96976;-82
2023/05/05 06:57:56;;;;;;;5.23;2.53;;;;;;;15.90;47.43;101494.78;5020058;27;97370;-81
2023/05/05 07:00:21;;;;;;;6.60;2.30;;;;;;;16.07;47.35;101500.31;5026203;27;97301;-80
2023/05/05 07:02:47;;;;;;;3.20;2.20;;;;;;;16.11;46.93;101525.78;5021298;27;99878;-81
2023/05/05 07:05:12;;;;;;;2.33;2.13;;;;;;;16.25;47.03;101496.97;5017409;27;99472;-81
2023/05/05 07:07:50;;;;;;;4.53;2.93;;;;;;;16.29;46.72;101491.88;5018290;27;97024;-82
2023/05/05 07:10:16;;;;;;;3.83;2.40;;;;;;;16.40;46.78;101489.78;5028747;27;96805;-82
2023/05/05 07:12:41;;;;;;;6.70;2.73;;;;;;;16.43;46.75;101474.91;5031523;27;99524;-82
2023/05/05 07:15:07;;;;;;;3.03;2.73;;;;;;;16.44;46.69;101484.75;5020995;27;103948;-83
2023/05/05 07:17:32;;;;;;;3.53;2.70;;;;;;;16.44;46.77;101487.53;5024146;27;97225;-83
2023/05/05 07:19:57;;;;;;;3.57;2.17;;;;;;;16.57;46.56;101494.56;5020804;27;99724;-83
2023/05/05 07:22:23;;;;;;;4.70;2.90;;;;;;;16.71;46.67;101499.75;5026672;27;99324;-83
2023/05/05 07:24:48;;;;;;;5.40;2.93;;;;;;;16.83;46.33;101492.88;5020974;27;111841;-82
2023/05/05 07:27:13;;;;;;;2.40;2.20;;;;;;;16.97;46.45;101485.47;5019678;27;97359;-83
2023/05/05 07:29:38;;;;;;;4.57;2.63;;;;;;;17.01;46.04;101483.91;5017519;27;97148;-82
2023/05/05 07:32:04;;;;;;;4.47;2.43;;;;;;;17.14;46.07;101497.97;5023668;27;107488;-81
2023/05/05 07:34:33;;;;;;;2.13;1.87;;;;;;;17.20;45.88;101490.34;5018660;27;100456;-82
2023/05/05 07:36:58;;;;;;;3.03;2.80;;;;;;;17.27;45.67;101497.38;5020155;27;96841;-81
2023/05/05 07:39:23;;;;;;;3.93;2.50;;;;;;;17.19;45.64;101493.63;5005872;27;99325;-83
2023/05/05 07:41:49;;;;;;;3.03;2.00;;;;;;;17.24;45.66;101496.38;5012299;27;97676;-83
2023/05/05 07:44:14;;;;;;;5.30;2.27;;;;;;;17.35;45.69;101481.59;5011518;27;99410;-82
2023/05/05 07:46:40;;;;;;;2.90;2.60;;;;;;;17.38;45.65;101496.50;5011868;27;97213;-81
2023/05/05 07:49:05;;;;;;;4.03;3.07;;;;;;;17.43;45.51;101488.09;5010537;27;97623;-82
2023/05/05 07:51:31;;;;;;;5.17;2.50;;;;;;;17.45;45.52;101493.91;5010265;27;99599;-82
2023/05/05 07:53:56;;;;;;;4.60;2.80;;;;;;;17.49;45.23;101480.47;5007633;27;100131;-82
2023/05/05 07:56:21;;;;;;;2.73;2.53;;;;;;;17.50;45.43;101497.91;5012119;27;98192;-83
2023/05/05 07:58:47;;;;;;;2.90;2.70;;;;;;;17.57;45.47;101489.78;5013160;27;97380;-82
2023/05/05 08:01:12;;;;;;;2.73;1.93;;;;;;;17.66;45.29;101488.69;5013176;27;97093;-81
2023/05/05 08:03:37;;;;;;;2.93;2.33;;;;;;;17.70;45.27;101484.34;5011568;27;98424;-83
2023/05/05 08:06:10;;;;;;;3.73;2.33;;;;;;;17.79;45.08;101486.00;5010205;27;97232;-83
2023/05/05 08:08:36;;;;;;;3.37;2.20;;;;;;;17.82;45.36;101496.84;5010051;27;97377;-83
2023/05/05 08:11:02;;;;;;;3.77;2.60;;;;;;;17.83;44.98;101503.94;5010629;27;99769;-83
2023/05/05 08:13:29;;;;;;;5.00;2.70;;;;;;;17.87;45.11;101520.34;5009910;27;99261;-81
2023/05/05 08:15:55;;;;;;;2.73;2.53;;;;;;;17.92;45.05;101520.28;5010520;27;96923;-81
2023/05/05 08:18:20;;;;;;;4.00;2.90;;;;;;;17.96;44.66;101529.09;5009914;27;97683;-82
2023/05/05 08:20:46;;;;;;;4.83;2.63;;;;;;;18.00;44.75;101550.34;5007383;27;99129;-81
2023/05/05 08:23:11;;;;;;;4.40;2.80;;;;;;;18.01;44.81;101557.41;5011091;27;96932;-82
2023/05/05 08:25:36;;;;;;;3.50;2.50;;;;;;;18.09;44.85;101569.47;5009137;27;99495;-82
2023/05/05 08:28:02;;;;;;;3.40;2.60;;;;;;;18.16;44.67;101552.19;5009513;27;97260;-81
2023/05/05 08:30:27;;;;;;;2.43;2.23;;;;;;;18.21;44.80;101554.16;5009118;27;99521;-81
2023/05/05 08:32:52;;;;;;;3.50;3.10;;;;;;;18.37;44.56;101561.59;5009843;27;99549;-82
2023/05/05 08:35:18;;;;;;;5.00;2.60;;;;;;;18.45;44.52;101559.72;5010326;27;97025;-82
2023/05/05 08:37:43;;;;;;;2.77;2.50;;;;;;;18.50;44.63;101562.44;5011471;27;99219;-82
2023/05/05 08:40:13;;;;;;;4.43;2.80;;;;;;;18.59;44.06;101566.88;5009953;27;99874;-82
2023/05/05 08:42:40;;;;;;;2.90;2.60;;;;;;;18.71;43.97;101545.97;5012509;27;97146;-82
2023/05/05 08:45:08;;;;;;;2.30;2.10;;;;;;;18.83;43.97;101558.47;5010666;27;97661;-82
2023/05/05 08:47:35;;;;;;;4.50;2.93;;;;;;;18.92;43.94;101544.13;5009984;27;97014;-82
2023/05/05 08:50:01;;;;;;;2.77;2.20;;;;;;;18.95;43.62;101570.97;5010003;27;100273;-82
2023/05/05 08:52:31;;;;;;;3.53;2.77;;;;;;;19.01;43.80;101540.19;5011798;27;99232;-83
2023/05/05 08:55:05;;;;;;;2.90;2.30;;;;;;;19.15;43.66;101528.59;5006751;27;98347;-82
2023/05/05 08:57:38;;;;;;;2.77;2.57;;;;;;;19.29;43.29;101530.13;5009915;27;98212;-82
2023/05/05 09:00:04;;;;;;;3.17;2.87;;;;;;;19.27;43.23;101527.13;5008883;27;102484;-82
2023/05/05 09:02:31;;;;;;;2.60;2.40;;;;;;;19.41;43.41;101509.16;5010650;27;96838;-82
2023/05/05 09:04:57;;;;;;;2.43;2.23;;;;;;;19.60;43.43;101492.31;5010413;27;100220;-82
2023/05/05 09:07:23;;;;;;;3.57;2.73;;;;;;;19.80;43.12;101499.31;5011390;27;96791;-82
2023/05/05 09:09:49;;;;;;;5.60;2.97;;;;;;;19.95;42.64;101491.91;5005143;27;100517;-82
2023/05/05 09:12:16;;;;;;;5.40;2.97;;;;;;;19.98;42.46;101479.69;5014138;27;100167;-82
2023/05/05 09:14:42;;;;;;;4.67;2.97;;;;;;;19.91;41.98;101493.53;5011645;27;96925;-83
2023/05/05 09:17:21;;;;;;;5.13;2.77;;;;;;;19.66;41.91;101483.88;5010117;27;97639;-83
2023/05/05 09:20:03;;;;;;;3.13;2.70;;;;;;;19.60;42.07;101480.41;5008788;27;102128;-82
2023/05/05 09:22:34;;;;;;;3.37;2.63;;;;;;;19.57;42.55;101473.13;5010990;27;101307;-82
2023/05/05 09:24:59;;;;;;;3.13;2.20;;;;;;;19.60;42.83;101480.41;5008736;27;99948;-83
2023/05/05 09:27:26;;;;;;;2.53;2.33;;;;;;;19.70;42.89;101473.84;5012112;27;97301;-83
2023/05/05 09:29:51;;;;;;;5.23;2.77;;;;;;;19.77;42.96;101473.22;5011706;27;99317;-82
2023/05/05 09:32:17;;;;;;;3.00;2.70;;;;;;;19.79;42.58;101467.84;5014867;27;99678;-83
2023/05/05 09:34:55;;;;;;;3.73;2.90;;;;;;;19.80;42.72;101474.19;5013304;27;99237;-82
2023/05/05 09:37:29;;;;;;;4.17;2.20;;;;;;;19.84;42.56;101480.97;5014883;27;97630;-82
2023/05/05 09:39:59;;;;;;;3.37;2.13;;;;;;;19.86;42.58;101477.63;5012090;27;98118;-81
2023/05/05 09:42:24;;;;;;;2.37;2.13;;;;;;;19.82;42.61;101472.38;5012772;27;98822;-81
2023/05/05 09:44:50;;;;;;;4.83;2.63;;;;;;;19.76;42.52;101465.38;5012250;27;97622;-82
2023/05/05 09:47:16;;;;;;;4.67;2.50;;;;;;;19.74;42.84;101479.13;5014597;27;99346;-82
2023/05/05 09:49:41;;;;;;;2.57;2.37;;;;;;;19.83;42.87;101484.31;5012724;27;99121;-84
2023/05/05 09:52:14;;;;;;;3.10;2.50;;;;;;;19.98;42.63;101482.47;5015173;27;97622;-82
2023/05/05 09:54:41;;;;;;;2.30;2.10;;;;;;;20.18;42.43;101487.38;5014876;27;97027;-82
2023/05/05 09:57:06;;;;;;;4.10;2.47;;;;;;;20.38;42.50;101499.94;5010145;27;97642;-82
2023/05/05 09:59:31;;;;;;;3.83;2.57;;;;;;;20.69;42.28;101495.47;5013421;27;100452;-82
2023/05/05 10:02:14;;;;;;;2.53;2.10;;;;;;;21.02;41.22;101493.94;5014451;27;104733;-82
2023/05/05 10:04:39;;;;;;;2.73;2.53;;;;;;;21.27;41.47;101495.16;5014670;27;100259;-83
2023/05/05 10:07:05;;;;;;;3.60;3.27;;;;;;;21.41;41.20;101502.16;5013557;27;97157;-82
2023/05/05 10:09:31;;;;;;;4.00;3.27;;;;;;;21.60;41.11;101509.03;5016177;27;97650;-83
2023/05/05 10:11:58;;;;;;;4.50;2.80;;;;;;;21.74;40.78;101484.47;5012604;27;98813;-82
2023/05/05 10:14:25;;;;;;;2.50;2.20;;;;;;;21.70;40.96;101500.88;5014691;27;97084;-83
2023/05/05 10:16:53;;;;;;;5.87;2.77;;;;;;;21.73;40.80;101502.59;5011494;27;97069;-83
2023/05/05 10:19:23;;;;;;;5.10;2.97;;;;;;;21.70;40.47;101500.88;5013746;27;97364;-82
2023/05/05 10:21:50;;;;;;;4.57;2.90;;;;;;;21.65;40.76;101510.94;5012599;27;99397;-82
2023/05/05 10:24:33;;;;;;;4.70;2.80;;;;;;;21.67;40.07;101494.31;5014802;27;97372;-83
2023/05/05 10:27:02;;;;;;;3.10;1.97;;;;;;;21.71;40.65;101493.97;5015401;27;96941;-83
2023/05/05 10:30:02;;;;;;;2.90;2.40;;;;;;;21.79;39.86;101500.41;5015545;27;100948;-83
2023/05/05 10:32:53;;;;;;;2.53;2.33;;;;;;;21.82;39.93;101501.34;5010272;27;98734;-83
2023/05/05 10:35:23;;;;;;;3.50;2.50;;;;;;;21.75;40.59;101497.19;5012876;27;97659;-83
2023/05/05 10:37:51;;;;;;;2.90;2.47;;;;;;;21.67;40.42;101488.72;5012883;27;97260;-83
2023/05/05 10:40:19;;;;;;;2.67;2.40;;;;;;;21.49;40.50;101469.38;5011759;27;100899;-83
2023/05/05 10:42:44;;;;;;;3.60;2.60;;;;;;;21.44;40.51;101467.47;5013970;27;98223;-82
2023/05/05 10:45:10;;;;;;;2.57;2.37;;;;;;;21.36;40.61;101472.28;5012480;27;96863;-83
2023/05/05 10:47:37;;;;;;;4.20;2.37;;;;;;;21.21;40.54;101486.13;5015298;27;98905;-84
2023/05/05 10:50:11;;;;;;;3.97;2.50;;;;;;;21.22;40.60;101452.00;5011855;27;97582;-83
2023/05/05 10:52:51;;;;;;;4.07;2.70;;;;;;;21.21;40.59;101444.88;5013304;27;99343;-83
2023/05/05 10:55:26;;;;;;;3.10;2.60;;;;;;;21.16;40.59;101420.63;5012747;27;97687;-84
2023/05/05 10:57:52;;;;;;;3.13;2.90;;;;;;;21.20;41.06;101425.84;5013350;27;97409;-83
2023/05/05 11:00:36;;;;;;;4.13;2.93;;;;;;;21.26;41.07;101429.25;5012396;27;100605;-83
2023/05/05 11:03:17;;;;;;;5.13;2.60;;;;;;;21.36;40.75;101428.19;5010881;27;98330;-83
2023/05/05 11:06:07;;;;;;;2.40;2.13;;;;;;;21.50;40.28;101434.47;5011191;27;97359;-83
2023/05/05 11:08:34;;;;;;;5.53;2.17;;;;;;;21.65;40.76;101431.75;5014017;27;97090;-83
2023/05/05 11:11:01;;;;;;;2.90;2.60;;;;;;;21.85;40.76;101435.81;5009870;27;99265;-83
2023/05/05 11:13:27;;;;;;;3.13;2.83;;;;;;;22.08;40.13;101450.72;5015081;27;100715;-84
2023/05/05 11:16:00;;;;;;;5.23;2.53;;;;;;;22.33;39.98;101424.44;5012613;27;97779;-83
2023/05/05 11:18:43;;;;;;;5.10;2.60;;;;;;;22.82;38.81;101434.69;5013853;27;97007;-82
2023/05/05 11:21:15;;;;;;;2.43;2.23;;;;;;;23.16;38.06;101440.66;5007418;27;99568;-83
2023/05/05 11:23:46;;;;;;;1.93;1.83;;;;;;;23.52;38.67;101444.06;5008409;27;100844;-84
2023/05/05 11:26:13;;;;;;;3.57;2.40;;;;;;;23.80;38.34;101437.44;5011433;27;97184;-84
2023/05/05 11:29:03;;;;;;;8.20;2.80;;;;;;;24.04;36.88;101433.22;5013111;27;97683;-84